Terminal Aerodrome Forecast
Issued by NWS Twin Cities, MN

Home | Current Version | Previous Version | Text Only | Print | Product List | Glossary On
Versions: 1 2 3 4 5 6 7 8 9 10 11 12 13 14 15 16 17 18 19
743
FTUS43 KMPX 232338
TAFSTC
TAF
KSTC 232338Z 2400/2424 09007KT P6SM -SHRA BKN020 OVC040
     FM240200 11009KT P6SM SCT008 OVC012
     FM240600 11008KT 5SM BR OVC005
     FM241500 12010KT P6SM OVC008
     FM241800 13012KT P6SM SCT012 OVC020
     FM242200 14012G18KT P6SM VCSH SCT020 OVC030=

USA.gov is the U.S. government's official web portal to all federal, state and local government web resources and services.